createdAt,value
2022-09-04T00:01:46.387Z,4.0504
2022-09-04T00:06:58.248Z,4.0455
2022-09-04T00:17:22.325Z,4.0406
2022-09-04T00:22:34.366Z,4.0455
2022-09-04T00:27:46.446Z,4.0406
2022-09-04T00:32:58.445Z,4.0455
2022-09-04T00:43:22.815Z,4.0309
2022-09-04T00:48:34.891Z,4.0309
2022-09-04T00:53:46.887Z,4.0406
2022-09-04T00:58:58.939Z,4.0406
2022-09-04T01:09:22.766Z,4.0309
2022-09-04T01:14:34.818Z,4.0309
2022-09-04T01:19:47.528Z,4.0309
2022-09-04T01:24:59.417Z,4.0309
2022-09-04T01:35:23.557Z,4.0406
2022-09-04T01:40:37.007Z,4.0309
2022-09-04T01:45:48.874Z,4.0309
2022-09-04T01:51:00.898Z,4.0309
2022-09-04T01:56:12.737Z,4.0309
2022-09-04T02:01:25.085Z,4.0309
2022-09-04T02:06:36.868Z,4.0309
2022-09-04T02:11:48.858Z,4.0309
2022-09-04T02:17:01.211Z,4.0309
2022-09-04T02:27:25.360Z,4.0309
2022-09-04T02:32:37.373Z,4.026
2022-09-04T02:37:49.312Z,4.026
2022-09-04T02:43:01.502Z,4.026
2022-09-04T02:48:13.727Z,4.026
2022-09-04T02:53:25.820Z,4.026
2022-09-04T02:58:37.980Z,4.0309
2022-09-04T03:03:50.261Z,4.026
2022-09-04T03:14:22.077Z,4.026
2022-09-04T03:19:37.454Z,4.026
2022-09-04T03:24:48.472Z,4.026
2022-09-04T03:30:00.493Z,4.026
2022-09-04T03:40:25.173Z,4.0211
2022-09-04T03:45:37.303Z,4.0211
2022-09-04T03:50:49.492Z,4.0211
2022-09-04T03:56:01.693Z,4.0211
2022-09-04T04:01:14.384Z,4.0211
2022-09-04T04:06:26.172Z,4.0211
2022-09-04T04:11:44.682Z,4.0211
2022-09-04T04:16:58.733Z,4.0211
2022-09-04T04:27:24.663Z,4.0211
2022-09-04T04:32:36.092Z,4.0211
2022-09-04T04:37:48.293Z,4.0211
2022-09-04T04:43:00.354Z,4.0211
2022-09-04T04:48:12.593Z,4.0211
2022-09-04T04:53:24.652Z,4.0211
2022-09-04T04:58:36.812Z,4.026
2022-09-04T05:03:49.082Z,4.0211
2022-09-04T05:09:01.286Z,4.0211
2022-09-04T05:19:26.662Z,4.0211
2022-09-04T05:24:39.011Z,4.0211
2022-09-04T05:29:51.287Z,4.0211
2022-09-04T05:40:16.995Z,4.0211
2022-09-04T05:45:29.231Z,4.0211
2022-09-04T05:50:41.387Z,4.0211
2022-09-04T05:55:53.416Z,4.0211
2022-09-04T06:11:29.498Z,4.0162
2022-09-04T06:16:41.564Z,4.0211
2022-09-04T06:21:53.835Z,4.0162
2022-09-04T06:32:17.889Z,4.0162
2022-09-04T06:37:29.824Z,4.0162
2022-09-04T06:42:42.123Z,4.0162
2022-09-04T06:47:54.315Z,4.0162
2022-09-04T06:58:18.975Z,4.0211
2022-09-04T07:03:31.195Z,4.0211
2022-09-04T07:08:43.154Z,4.0211
2022-09-04T07:13:55.695Z,4.0211
2022-09-04T07:24:20.294Z,4.026
2022-09-04T07:29:48.687Z,4.026
2022-09-04T07:34:57.764Z,4.026
2022-09-04T07:45:22.625Z,4.026
2022-09-04T07:50:34.473Z,4.0211
2022-09-04T07:55:46.459Z,4.0211
2022-09-04T08:00:58.398Z,4.0211
2022-09-04T08:11:22.634Z,4.026
2022-09-04T08:16:34.648Z,4.0211
2022-09-04T08:21:46.911Z,4.026
2022-09-04T08:26:59.001Z,4.0211
2022-09-04T08:37:23.232Z,4.0211
2022-09-04T08:42:35.420Z,4.026
2022-09-04T08:47:47.636Z,4.026
2022-09-04T08:58:19.187Z,4.0211
2022-09-04T09:03:31.300Z,4.026
2022-09-04T09:08:43.471Z,4.026
2022-09-04T09:19:18.652Z,4.0309
2022-09-04T09:24:30.775Z,4.026
2022-09-04T09:29:44.419Z,4.0309
2022-09-04T09:34:56.820Z,4.026
2022-09-04T09:45:21.372Z,4.026
2022-09-04T09:50:33.631Z,4.026
2022-09-04T09:55:45.821Z,4.0309
2022-09-04T10:00:58.294Z,4.0309
2022-09-04T10:06:15.045Z,4.0309
2022-09-04T10:11:30.185Z,4.026
2022-09-04T10:16:43.255Z,4.0309
2022-09-04T10:21:55.439Z,4.0309
2022-09-04T10:32:21.206Z,4.0309
2022-09-04T10:37:33.905Z,4.0406
2022-09-04T10:42:46.476Z,4.0406
2022-09-04T10:48:00.848Z,4.0406
2022-09-04T10:53:15.088Z,4.0406
2022-09-04T10:58:28.066Z,4.0455
2022-09-04T11:03:40.397Z,4.0455
2022-09-04T11:08:52.907Z,4.0504
2022-09-04T11:19:18.211Z,4.0553
2022-09-04T11:24:31.211Z,4.065
2022-09-04T11:29:44.692Z,4.065
2022-09-04T11:34:57.962Z,4.065
2022-09-04T11:45:24.597Z,4.0797
2022-09-04T11:50:39.940Z,4.0992
2022-09-04T11:55:53.969Z,4.0894
2022-09-04T12:06:25.281Z,4.1138
2022-09-04T12:11:37.718Z,4.1285
2022-09-04T12:16:51.060Z,4.148
2022-09-04T12:22:03.730Z,4.1578
2022-09-04T12:27:16.620Z,4.1822
2022-09-04T12:32:29.320Z,4.2163
2022-09-04T12:37:42.299Z,4.1382
2022-09-04T12:42:55.859Z,4.1285
2022-09-04T13:08:55.636Z,4.1138
2022-09-04T13:24:33.489Z,4.1578
2022-09-04T13:29:46.207Z,4.1431
2022-09-04T13:55:40.962Z,4.1382
2022-09-04T14:11:16.275Z,4.1334
2022-09-04T14:16:29.022Z,4.1285
2022-09-04T14:30:41.373Z,4.1236
2022-09-04T14:40:54.074Z,4.1236
2022-09-04T14:51:19.648Z,4.1187
2022-09-04T14:56:32.427Z,4.1285
2022-09-04T15:07:13.248Z,4.1382
2022-09-04T15:12:27.022Z,4.1382
2022-09-04T15:17:43.655Z,4.1431
2022-09-04T15:22:56.873Z,4.148
2022-09-04T15:33:27.996Z,4.1626
2022-09-04T15:38:44.769Z,4.1724
2022-09-04T15:43:57.425Z,4.1724
2022-09-04T16:04:42.231Z,4.187
2022-09-04T16:09:55.108Z,4.1919
2022-09-04T16:20:22.135Z,4.1968
2022-09-04T16:30:45.458Z,4.1822
2022-09-04T16:35:58.063Z,4.1773
2022-09-04T16:46:24.224Z,4.1675
2022-09-04T16:56:46.663Z,4.1626
2022-09-04T17:12:22.474Z,4.1578
2022-09-04T17:17:34.405Z,4.1431
2022-09-04T17:29:47.842Z,4.1382
2022-09-04T17:42:10.882Z,4.1285
2022-09-04T17:57:33.349Z,4.0992
2022-09-04T18:08:11.770Z,4.0894
2022-09-04T18:13:39.745Z,4.0894
2022-09-04T18:24:00.452Z,4.0846
2022-09-04T18:37:48.867Z,4.0846
2022-09-04T18:51:22.650Z,4.0846
2022-09-04T19:01:37.492Z,4.0602
2022-09-04T19:06:49.222Z,4.0602
2022-09-04T19:12:01.789Z,4.0602
2022-09-04T19:22:30.051Z,4.0602
2022-09-04T19:27:45.001Z,4.0602
2022-09-04T19:32:57.821Z,4.065
2022-09-04T19:46:43.851Z,4.0602
2022-09-04T19:53:50.776Z,4.0455
2022-09-04T19:58:55.085Z,4.0455
2022-09-04T20:04:07.606Z,4.0455
2022-09-04T20:09:19.503Z,4.0504
2022-09-04T20:19:44.213Z,4.0455
2022-09-04T20:25:03.539Z,4.0455
2022-09-04T20:30:20.490Z,4.0455
2022-09-04T20:35:34.775Z,4.0455
2022-09-04T20:40:46.425Z,4.0455
2022-09-04T20:53:22.354Z,4.0455
2022-09-04T21:03:30.869Z,4.026
2022-09-04T21:08:33.704Z,4.026
2022-09-04T21:13:48.061Z,4.026
2022-09-04T21:19:30.887Z,4.026
2022-09-04T21:24:38.920Z,4.0309
2022-09-04T21:29:51.054Z,4.026
2022-09-04T21:35:03.211Z,4.026
2022-09-04T21:40:54.417Z,4.026
2022-09-04T21:46:13.650Z,4.026
2022-09-04T21:51:30.317Z,4.026
2022-09-04T22:03:03.898Z,4.026
2022-09-04T22:13:51.793Z,4.0162
2022-09-04T22:24:05.809Z,4.0162
2022-09-04T22:34:27.419Z,4.0162
2022-09-04T22:39:39.982Z,4.0162
2022-09-04T22:50:04.399Z,4.0162
2022-09-04T22:56:25.990Z,4.0162
2022-09-04T23:01:32.203Z,4.0162
2022-09-04T23:14:18.525Z,4.0162
2022-09-04T23:27:03.476Z,4.0065
2022-09-04T23:32:11.161Z,4.0016
2022-09-04T23:37:23.768Z,4.0065
2022-09-04T23:42:35.600Z,4.0065
2022-09-04T23:47:50.639Z,4.0065
2022-09-04T23:58:13.698Z,4.0065
